logo
Rechercher aéroport 
image banner adimage banner adimage banner ad
image banner ad

FACONT - Contermanskloof

Situé à , South Africa

ICAO - , IATA -

Données fournies par Airmate  

Information générale

Coordonnées: S33°48'4" E18°34'59"
Élévation : 393 feet MSL.
 
Évalué:
Voir évaluations:
[VIEW]
Voir autres Aéroports à Western Cape

Données opérationnelles

Special qualification required
Heure actuelle UTC:
Heure actuelle locale:
Météo à : - ( 0 km )
METAR: PASD 251703Z 30015G21KT 10SM -RA BKN014 BKN020 OVC050 04/01 A2982 RMK AO2 PNO $
Voir NOTAMs / SUP AIP / TFR affectant cet aéroport [VIEW]
Fréquences de communication: [VIEW]

Pistes:

Identifiant RWYQFULongueur (ft)Largeur (ft)SurfaceLDA (ft)
17150°98433SAND
35330°98433SAND

Coordonnées de l'aéroport

Adresse: South Africa

Vue satellite de FACONT